Time;durP1;ratioP1;P1;durP2;ratioP2;P2;SDS_P1;SDS_P2;PMS_P1;PMS_P2;Temp;Humidity;BMP_temperature;BMP_pressure;BME280_temperature;BME280_humidity;BME280_pressure;Samples;Min_cycle;Max_cycle;Signal;HPM_P1;HPM_P2
2023/01/28 00:00:52;;;;;;;0.93;0.93;;;;;;;4.44;61.96;99934.84;4361165;32;33254;-85
2023/01/28 00:03:20;;;;;;;2.12;1.60;;;;;;;4.55;61.53;99932.03;4370563;32;33035;-85
2023/01/28 00:05:50;;;;;;;3.22;0.75;;;;;;;4.73;60.87;99939.56;4369694;32;33792;-85
2023/01/28 00:08:18;;;;;;;2.50;1.80;;;;;;;4.50;61.73;99944.34;4367414;32;32202;-85
2023/01/28 00:10:45;;;;;;;0.95;0.95;;;;;;;4.90;60.19;99944.53;4377012;32;33184;-85
2023/01/28 00:13:13;;;;;;;1.15;1.10;;;;;;;4.59;61.53;99938.94;4367480;32;33791;-86
2023/01/28 00:15:41;;;;;;;1.50;1.05;;;;;;;4.67;60.88;99947.53;4384381;32;32653;-85
2023/01/28 00:18:09;;;;;;;2.28;1.42;;;;;;;4.83;60.62;99948.97;4377529;32;32523;-85
2023/01/28 00:20:36;;;;;;;2.37;2.22;;;;;;;4.79;60.59;99942.06;4382301;32;34029;-85
2023/01/28 00:23:04;;;;;;;3.00;1.75;;;;;;;4.68;61.19;99945.78;4390217;32;32733;-85
2023/01/28 00:25:32;;;;;;;4.55;3.67;;;;;;;4.92;60.29;99940.09;4377787;32;34738;-85
2023/01/28 00:27:59;;;;;;;1.70;1.60;;;;;;;4.69;60.90;99953.59;4376648;32;33558;-85
2023/01/28 00:30:27;;;;;;;0.62;0.62;;;;;;;4.62;61.25;99945.00;4377220;32;33005;-85
2023/01/28 00:32:55;;;;;;;4.62;4.18;;;;;;;4.66;61.52;99955.41;4377403;32;32595;-85
2023/01/28 00:35:22;;;;;;;0.75;0.75;;;;;;;4.92;60.28;99947.09;4377002;32;33920;-85
2023/01/28 00:37:50;;;;;;;0.28;0.28;;;;;;;4.88;60.54;99948.91;4384697;32;35966;-86
2023/01/28 00:40:19;;;;;;;1.48;1.20;;;;;;;4.78;61.02;99953.44;4374643;32;32675;-85
2023/01/28 00:42:46;;;;;;;0.22;0.22;;;;;;;4.64;61.47;99958.03;4393968;32;34768;-86
2023/01/28 00:45:14;;;;;;;2.55;2.35;;;;;;;4.84;60.54;99947.22;4352614;32;34339;-85
2023/01/28 00:47:44;;;;;;;2.05;1.87;;;;;;;4.95;60.34;99952.28;4371400;32;32737;-86
2023/01/28 00:50:12;;;;;;;1.62;1.52;;;;;;;5.10;59.85;99957.22;4365640;32;33747;-86
2023/01/28 00:52:39;;;;;;;1.17;1.17;;;;;;;4.92;60.33;99957.56;4381462;32;32861;-85
2023/01/28 00:55:07;;;;;;;4.65;2.10;;;;;;;4.88;60.41;99959.38;4376595;32;33533;-84
2023/01/28 00:57:35;;;;;;;1.25;1.15;;;;;;;5.02;59.94;99953.88;4394070;32;33254;-84
2023/01/28 01:00:03;;;;;;;6.55;3.72;;;;;;;4.71;60.94;99959.69;4381980;32;33231;-84
2023/01/28 01:02:32;;;;;;;4.55;2.83;;;;;;;4.94;60.29;99966.22;4383266;32;32891;-84
2023/01/28 01:05:00;;;;;;;5.22;2.20;;;;;;;4.77;60.89;99970.03;4364458;32;32856;-84
2023/01/28 01:07:40;;;;;;;4.85;1.08;;;;;;;5.03;60.19;99966.06;4378478;32;33638;-85
2023/01/28 01:10:14;;;;;;;2.60;2.45;;;;;;;4.97;60.05;99966.19;4372172;32;32965;-84
2023/01/28 01:12:45;;;;;;;3.75;3.50;;;;;;;5.02;59.62;99966.97;4377366;32;33609;-84
2023/01/28 01:15:13;;;;;;;1.08;0.98;;;;;;;5.06;59.46;99961.66;4376913;32;33084;-83
2023/01/28 01:17:43;;;;;;;1.15;1.05;;;;;;;4.98;60.09;99960.91;4370789;32;33345;-83
2023/01/28 01:20:16;;;;;;;7.70;1.55;;;;;;;4.66;60.78;99969.34;4382483;32;33322;-84
2023/01/28 01:22:44;;;;;;;1.75;1.65;;;;;;;5.06;59.83;99963.41;4382822;32;34045;-84
2023/01/28 01:25:13;;;;;;;3.05;2.83;;;;;;;4.91;60.34;99964.56;4377375;32;33326;-83
2023/01/28 01:27:42;;;;;;;2.62;2.33;;;;;;;4.92;60.35;99968.03;4383551;32;32973;-85
2023/01/28 01:30:11;;;;;;;2.58;2.37;;;;;;;5.26;59.16;99966.50;4385377;32;34677;-85
2023/01/28 01:32:38;;;;;;;1.62;1.10;;;;;;;5.11;59.12;99965.03;4358293;32;34482;-85
2023/01/28 01:35:08;;;;;;;2.97;2.78;;;;;;;5.07;59.34;99965.13;4376699;32;34064;-84
2023/01/28 01:37:37;;;;;;;8.05;3.85;;;;;;;4.84;60.05;99961.19;4371282;32;32029;-85
2023/01/28 01:40:05;;;;;;;1.60;1.60;;;;;;;5.02;59.33;99966.97;4390579;32;33756;-85
2023/01/28 01:42:33;;;;;;;3.90;3.60;;;;;;;5.07;59.42;99967.75;4388410;32;33283;-85
2023/01/28 01:45:12;;;;;;;1.10;1.10;;;;;;;4.93;59.55;99965.38;4379451;32;33171;-85
2023/01/28 01:47:47;;;;;;;3.10;2.45;;;;;;;4.97;59.47;99967.06;4378646;32;32801;-85
2023/01/28 01:50:26;;;;;;;8.48;4.18;;;;;;;5.16;59.03;99969.34;4378085;32;33148;-85
2023/01/28 01:52:57;;;;;;;2.17;2.05;;;;;;;5.16;58.83;99972.81;4384956;32;34726;-84
2023/01/28 01:55:28;;;;;;;1.83;1.75;;;;;;;5.26;58.64;99974.34;4370995;32;33664;-85
2023/01/28 01:58:00;;;;;;;3.70;3.22;;;;;;;5.24;58.60;99965.69;4385340;32;34013;-86
2023/01/28 02:00:28;;;;;;;5.97;3.45;;;;;;;5.20;58.92;99969.25;4387238;32;33368;-85
2023/01/28 02:02:57;;;;;;;5.62;2.17;;;;;;;5.23;58.64;99966.56;4385431;32;32975;-85
2023/01/28 02:05:25;;;;;;;2.72;2.50;;;;;;;5.19;58.76;99975.38;4393006;32;34444;-85
2023/01/28 02:08:19;;;;;;;0.80;0.70;;;;;;;5.26;58.39;99969.13;4372088;32;32637;-85
2023/01/28 02:10:44;;;;;;;1.60;1.50;;;;;;;5.13;58.88;99968.50;4353821;32;33492;-85
2023/01/28 02:13:13;;;;;;;4.37;1.75;;;;;;;5.19;58.60;99969.28;4344218;32;32845;-85
2023/01/28 02:15:43;;;;;;;1.75;1.65;;;;;;;5.19;58.52;99967.53;4350836;32;34190;-85
2023/01/28 02:18:11;;;;;;;2.15;1.95;;;;;;;4.97;59.23;99971.44;4363678;32;31902;-86
2023/01/28 02:21:14;;;;;;;2.62;2.53;;;;;;;4.96;59.28;99974.94;4358887;32;33121;-85
2023/01/28 02:24:20;;;;;;;5.80;4.53;;;;;;;4.60;60.58;99972.06;4364009;32;32750;-85
2023/01/28 02:27:08;;;;;;;1.65;1.55;;;;;;;4.63;60.69;99966.78;4367568;32;34242;-85
2023/01/28 02:29:43;;;;;;;1.85;1.15;;;;;;;4.72;60.26;99971.00;4360999;32;32490;-85
2023/01/28 02:32:18;;;;;;;9.07;4.53;;;;;;;4.72;60.51;99971.88;4360543;32;34169;-85
2023/01/28 02:35:11;;;;;;;2.75;2.53;;;;;;;4.82;60.23;99968.19;4363240;32;34526;-85
2023/01/28 02:38:10;;;;;;;1.85;1.75;;;;;;;4.93;59.77;99964.50;4351862;32;32959;-85
2023/01/28 02:43:42;;;;;;;0.93;0.90;;;;;;;4.86;59.82;99958.53;4363413;32;34253;-85
2023/01/28 02:49:25;;;;;;;1.12;1.12;;;;;;;4.95;59.73;99962.75;4361571;32;32638;-84
2023/01/28 02:52:12;;;;;;;1.50;1.27;;;;;;;4.91;59.76;99955.84;4375828;32;33630;-85
2023/01/28 02:54:59;;;;;;;1.37;1.33;;;;;;;4.95;59.56;99961.00;4374177;32;35130;-84
2023/01/28 02:57:42;;;;;;;2.45;2.25;;;;;;;4.90;59.76;99959.34;4363167;32;33094;-86
2023/01/28 03:00:21;;;;;;;2.17;1.95;;;;;;;5.02;59.40;99959.12;4362911;32;34708;-86
2023/01/28 03:02:53;;;;;;;1.70;1.60;;;;;;;5.12;59.19;99971.13;4362829;32;32507;-85
2023/01/28 03:05:28;;;;;;;1.23;1.08;;;;;;;5.02;59.37;99959.97;4369551;32;33627;-85
2023/01/28 03:07:56;;;;;;;2.50;2.30;;;;;;;5.30;58.36;99960.31;4357704;32;33039;-86
2023/01/28 03:10:25;;;;;;;1.77;1.67;;;;;;;5.20;58.65;99958.78;4381465;32;32914;-86
2023/01/28 03:38:51;;;;;;;1.80;1.70;;;;;;;5.05;59.20;99966.91;4377995;32;33168;-86
2023/01/28 03:41:21;;;;;;;1.65;1.58;;;;;;;4.80;60.35;99969.97;4380391;32;33007;-87
2023/01/28 03:43:50;;;;;;;1.35;1.25;;;;;;;4.97;60.26;99974.91;4382909;32;33745;-87
2023/01/28 03:46:18;;;;;;;2.35;1.77;;;;;;;5.14;59.85;99972.84;4389084;32;32715;-87
2023/01/28 03:48:46;;;;;;;0.98;0.98;;;;;;;5.16;59.69;99977.19;4384342;32;33858;-87
2023/01/28 03:51:15;;;;;;;5.32;3.55;;;;;;;4.98;60.54;99981.00;4377767;32;34555;-87
2023/01/28 03:53:42;;;;;;;2.28;2.15;;;;;;;5.19;59.71;99980.63;4379287;32;33286;-87
2023/01/28 03:56:18;;;;;;;1.42;1.42;;;;;;;4.87;60.37;99986.44;4373901;32;33527;-87
2023/01/28 03:58:52;;;;;;;1.62;1.52;;;;;;;4.70;61.25;99989.34;4379120;32;34165;-86
2023/01/28 04:01:20;;;;;;;1.95;1.37;;;;;;;4.46;61.71;99987.09;4371277;32;33841;-87
2023/01/28 04:03:48;;;;;;;2.65;2.45;;;;;;;4.70;61.33;99991.97;4366045;32;33492;-87
2023/01/28 04:06:16;;;;;;;6.43;3.50;;;;;;;4.78;61.09;99987.44;4360021;32;32615;-87
2023/01/28 04:08:51;;;;;;;1.58;1.52;;;;;;;4.78;61.49;99987.44;4382158;32;32819;-85
2023/01/28 04:11:20;;;;;;;7.60;4.40;;;;;;;4.80;61.19;99985.69;4375606;32;34770;-85
2023/01/28 04:13:48;;;;;;;2.42;1.48;;;;;;;4.78;60.90;99982.22;4395804;32;33943;-85
2023/01/28 04:16:16;;;;;;;2.78;2.40;;;;;;;4.86;60.55;99989.94;4358805;32;32880;-85
2023/01/28 04:18:45;;;;;;;2.12;1.98;;;;;;;4.96;60.32;99985.41;4370377;32;33910;-84
2023/01/28 04:21:13;;;;;;;0.98;0.98;;;;;;;4.73;60.84;99975.34;4368034;32;33668;-84
2023/01/28 04:23:40;;;;;;;1.65;1.55;;;;;;;4.86;60.48;99985.56;4373515;32;34263;-84
2023/01/28 04:26:09;;;;;;;2.40;2.20;;;;;;;4.72;60.85;99987.56;4393256;32;33733;-84
2023/01/28 04:28:37;;;;;;;2.50;2.20;;;;;;;5.06;59.92;99987.81;4387603;32;34207;-85
2023/01/28 04:31:05;;;;;;;3.47;1.87;;;;;;;4.95;60.24;99992.41;4381519;32;33564;-84
2023/01/28 04:33:33;;;;;;;9.40;1.75;;;;;;;4.86;60.38;99998.66;4385027;32;33489;-84
2023/01/28 04:36:01;;;;;;;2.00;1.90;;;;;;;4.84;60.51;99997.81;4370791;32;32994;-85
2023/01/28 04:38:30;;;;;;;3.42;2.97;;;;;;;4.74;61.10;99997.97;4370563;32;34445;-85
2023/01/28 04:40:58;;;;;;;7.85;3.03;;;;;;;4.82;60.79;100003.97;4396672;32;33885;-86
2023/01/28 04:43:26;;;;;;;2.85;2.33;;;;;;;4.70;61.33;99994.59;4364982;32;33165;-85
2023/01/28 04:45:54;;;;;;;1.90;1.80;;;;;;;4.88;60.67;100001.22;4362016;32;32466;-86
2023/01/28 04:48:21;;;;;;;1.95;1.77;;;;;;;4.59;61.55;99996.50;4384918;32;33860;-85
2023/01/28 04:50:50;;;;;;;1.62;1.42;;;;;;;4.43;61.81;100000.25;4357767;32;33398;-86
2023/01/28 04:53:18;;;;;;;3.58;3.28;;;;;;;4.17;63.05;100009.31;4377740;32;34089;-85
2023/01/28 04:55:46;;;;;;;2.10;2.00;;;;;;;4.46;61.86;100021.09;4369476;32;33626;-85
2023/01/28 04:58:14;;;;;;;3.25;2.92;;;;;;;4.75;60.87;100008.44;4394416;32;32148;-85
2023/01/28 05:00:42;;;;;;;3.62;3.37;;;;;;;4.21;62.58;100011.00;4381559;32;33266;-86
2023/01/28 05:03:10;;;;;;;0.93;0.93;;;;;;;4.56;61.75;100007.03;4382776;32;32555;-86
2023/01/28 05:05:38;;;;;;;2.85;2.05;;;;;;;4.61;61.42;100010.41;4381966;32;32366;-85
2023/01/28 05:08:06;;;;;;;0.68;0.65;;;;;;;4.39;61.93;100014.25;4363763;32;32510;-86
2023/01/28 05:10:34;;;;;;;2.70;2.35;;;;;;;4.58;61.61;100013.06;4380310;32;34055;-85
2023/01/28 05:13:02;;;;;;;3.35;2.65;;;;;;;4.47;62.16;100022.84;4352471;32;32910;-85
2023/01/28 05:15:30;;;;;;;2.08;1.98;;;;;;;4.32;62.28;100019.56;4384592;32;33421;-85
2023/01/28 05:17:58;;;;;;;2.00;1.48;;;;;;;4.75;60.77;100020.66;4381934;32;33713;-85
2023/01/28 05:20:26;;;;;;;2.90;1.50;;;;;;;4.55;61.30;100032.28;4387074;32;34329;-85
2023/01/28 05:22:55;;;;;;;3.90;3.28;;;;;;;4.81;60.31;100028.41;4396598;32;34152;-86
2023/01/28 05:25:23;;;;;;;11.18;2.75;;;;;;;4.74;60.69;100027.63;4387970;32;33123;-86
2023/01/28 05:27:51;;;;;;;1.30;1.30;;;;;;;4.72;60.90;100029.41;4383653;32;33760;-86
2023/01/28 05:30:19;;;;;;;2.75;2.55;;;;;;;4.79;60.72;100031.03;4378599;32;33512;-86
2023/01/28 05:32:47;;;;;;;1.80;1.35;;;;;;;4.75;60.97;100025.91;4352309;32;33444;-86
2023/01/28 05:35:15;;;;;;;3.70;3.50;;;;;;;4.71;61.13;100032.91;4385621;32;33403;-86
2023/01/28 05:37:43;;;;;;;2.15;1.40;;;;;;;4.83;60.52;100032.69;4378844;32;33131;-85
2023/01/28 05:40:11;;;;;;;2.37;1.12;;;;;;;4.66;61.28;100034.75;4379221;32;34766;-85
2023/01/28 05:42:41;;;;;;;1.50;1.42;;;;;;;4.73;61.09;100031.13;4379171;32;33916;-85
2023/01/28 05:45:10;;;;;;;2.37;2.28;;;;;;;5.00;60.31;100028.94;4380772;32;33210;-85
2023/01/28 05:47:39;;;;;;;2.17;2.08;;;;;;;4.63;61.32;100040.00;4373802;32;34420;-85
2023/01/28 05:50:09;;;;;;;1.35;1.35;;;;;;;4.56;61.72;100043.63;4382882;32;32942;-85
2023/01/28 05:52:37;;;;;;;2.40;2.08;;;;;;;4.26;62.66;100042.31;4378674;32;34679;-85
2023/01/28 05:55:06;;;;;;;1.90;1.80;;;;;;;4.11;63.30;100052.09;4383815;32;32254;-85
2023/01/28 05:57:34;;;;;;;4.62;2.00;;;;;;;4.35;62.42;100044.78;4385558;32;33404;-85
2023/01/28 06:00:04;;;;;;;2.35;2.12;;;;;;;4.42;62.39;100048.19;4377431;32;33150;-85
2023/01/28 06:02:41;;;;;;;1.42;1.40;;;;;;;4.53;61.99;100054.13;4383714;32;33218;-85
2023/01/28 06:05:09;;;;;;;4.00;3.75;;;;;;;4.54;62.00;100054.09;4390739;32;33586;-86
2023/01/28 06:07:37;;;;;;;1.98;1.87;;;;;;;4.34;62.47;100048.31;4353034;32;33688;-86
2023/01/28 06:10:06;;;;;;;1.15;1.15;;;;;;;4.41;62.15;100059.53;4390170;32;33687;-85
2023/01/28 06:12:34;;;;;;;3.53;3.22;;;;;;;4.50;62.06;100047.19;4356879;32;33889;-86
2023/01/28 06:15:04;;;;;;;0.90;0.90;;;;;;;4.64;61.38;100052.19;4364087;32;33524;-86
2023/01/28 06:17:33;;;;;;;1.10;1.10;;;;;;;4.58;61.67;100054.91;4369016;32;33603;-86
2023/01/28 06:20:01;;;;;;;7.07;2.12;;;;;;;4.25;62.67;100061.50;4363488;32;33021;-86
2023/01/28 06:22:29;;;;;;;3.55;3.08;;;;;;;4.57;61.63;100071.50;4372608;32;33173;-85
2023/01/28 06:24:57;;;;;;;6.53;4.28;;;;;;;4.36;62.50;100070.91;4363758;32;33500;-85
2023/01/28 06:27:26;;;;;;;3.15;2.92;;;;;;;4.52;61.76;100076.81;4393106;32;33204;-85
2023/01/28 06:29:53;;;;;;;4.20;3.90;;;;;;;4.54;61.71;100072.41;4374274;32;34653;-85
2023/01/28 06:32:21;;;;;;;2.30;2.03;;;;;;;4.69;61.07;100076.53;4366841;32;34519;-86
2023/01/28 06:34:49;;;;;;;3.30;3.00;;;;;;;4.52;61.69;100082.03;4363786;32;33516;-85
2023/01/28 06:37:17;;;;;;;3.28;2.70;;;;;;;4.65;60.84;100080.06;4382022;32;33572;-86
2023/01/28 06:39:45;;;;;;;4.30;3.60;;;;;;;4.53;61.26;100080.28;4369289;32;34262;-86
2023/01/28 06:42:13;;;;;;;1.00;1.00;;;;;;;4.26;62.35;100090.22;4367683;32;33435;-85
2023/01/28 06:44:40;;;;;;;2.70;2.40;;;;;;;4.49;61.85;100092.53;4370583;32;32579;-85
2023/01/28 06:47:09;;;;;;;3.15;2.87;;;;;;;4.55;61.64;100088.94;4375259;32;32934;-85
2023/01/28 06:49:37;;;;;;;1.90;1.80;;;;;;;4.74;60.89;100090.41;4363809;32;33205;-85
2023/01/28 06:52:05;;;;;;;3.03;2.40;;;;;;;4.99;60.04;100096.12;4363729;32;33538;-85
2023/01/28 06:54:32;;;;;;;2.53;2.40;;;;;;;4.79;60.99;100099.03;4362269;32;34309;-85
2023/01/28 06:57:00;;;;;;;2.22;2.05;;;;;;;4.49;61.68;100115.19;4351257;32;33422;-85
2023/01/28 06:59:27;;;;;;;1.55;1.40;;;;;;;4.24;62.84;100115.53;4380148;32;33159;-85
2023/01/28 07:01:55;;;;;;;1.33;1.25;;;;;;;4.62;61.47;100121.97;4363208;32;33691;-85
2023/01/28 07:04:23;;;;;;;4.68;2.72;;;;;;;4.62;61.50;100119.38;4368363;32;32876;-86
2023/01/28 07:06:50;;;;;;;2.62;2.15;;;;;;;4.60;61.52;100113.28;4351070;32;33601;-85
2023/01/28 07:09:19;;;;;;;3.62;3.12;;;;;;;4.56;61.96;100124.69;4361862;32;33625;-85
2023/01/28 07:11:47;;;;;;;2.60;2.22;;;;;;;4.69;61.35;100113.16;4362581;32;34118;-84
2023/01/28 07:14:14;;;;;;;6.60;4.95;;;;;;;4.49;61.88;100125.66;4374700;32;33118;-84
2023/01/28 07:16:42;;;;;;;3.67;2.65;;;;;;;4.64;61.17;100128.03;4362223;32;32895;-84
2023/01/28 07:19:10;;;;;;;4.00;2.83;;;;;;;4.67;61.30;100129.78;4362796;32;33047;-84
2023/01/28 07:21:37;;;;;;;3.62;3.40;;;;;;;4.65;61.50;100127.16;4373946;32;34837;-85
2023/01/28 07:24:05;;;;;;;1.33;1.33;;;;;;;4.79;61.10;100127.81;4361440;32;32520;-84
2023/01/28 07:26:33;;;;;;;0.98;0.47;;;;;;;4.55;61.57;100133.41;4363252;32;32366;-84
2023/01/28 07:29:01;;;;;;;2.65;1.50;;;;;;;4.81;60.86;100136.53;4337750;32;33208;-85
2023/01/28 07:31:28;;;;;;;3.28;2.90;;;;;;;4.82;60.88;100146.09;4375177;32;34780;-85
2023/01/28 07:33:56;;;;;;;2.40;1.92;;;;;;;4.57;61.63;100153.44;4350900;32;33615;-85
2023/01/28 07:36:24;;;;;;;4.40;1.30;;;;;;;4.70;61.26;100141.06;4354186;32;33526;-85
2023/01/28 07:38:51;;;;;;;3.30;1.02;;;;;;;4.86;60.52;100142.56;4351097;32;33225;-85
2023/01/28 07:41:19;;;;;;;0.98;0.95;;;;;;;4.63;61.11;100150.72;4351594;32;33730;-84
2023/01/28 07:43:47;;;;;;;3.92;3.35;;;;;;;4.69;61.29;100148.91;4373353;32;32763;-84
2023/01/28 07:46:14;;;;;;;3.85;3.53;;;;;;;4.61;61.78;100149.03;4351017;32;33075;-85
2023/01/28 07:48:42;;;;;;;5.40;2.53;;;;;;;4.62;61.74;100149.00;4374089;32;32752;-84
2023/01/28 07:51:10;;;;;;;2.75;2.65;;;;;;;5.11;59.83;100153.50;4362385;32;34108;-85
2023/01/28 07:53:38;;;;;;;3.58;3.28;;;;;;;5.07;60.11;100141.34;4362069;32;33748;-85
2023/01/28 07:56:06;;;;;;;0.22;0.22;;;;;;;5.23;59.15;100151.59;4363000;32;33036;-84
2023/01/28 07:58:33;;;;;;;3.10;2.92;;;;;;;5.03;59.94;100144.94;4375155;32;33983;-84
2023/01/28 08:01:01;;;;;;;3.85;3.58;;;;;;;5.20;59.29;100141.16;4363147;32;34170;-84
2023/01/28 08:03:29;;;;;;;2.62;2.05;;;;;;;4.68;61.36;100155.91;4363043;32;32936;-85
2023/01/28 08:05:57;;;;;;;3.12;2.92;;;;;;;4.76;61.31;100156.66;4352078;32;33616;-84
2023/01/28 08:08:28;;;;;;;1.65;1.45;;;;;;;4.54;61.86;100155.22;4371013;32;98741;-85
2023/01/28 08:10:55;;;;;;;2.60;2.50;;;;;;;4.80;60.99;100153.13;4374311;32;34208;-83
2023/01/28 08:13:23;;;;;;;1.37;1.37;;;;;;;4.88;61.05;100153.84;4378693;32;33444;-84
2023/01/28 08:15:54;;;;;;;4.57;2.05;;;;;;;4.98;60.85;100161.56;4369544;32;34571;-82
2023/01/28 08:18:22;;;;;;;2.47;2.37;;;;;;;4.91;60.73;100154.72;4369275;32;33626;-84
2023/01/28 08:20:54;;;;;;;4.82;2.53;;;;;;;4.93;60.93;100153.78;4390611;32;34206;-84
2023/01/28 08:23:22;;;;;;;1.42;1.35;;;;;;;5.11;60.74;100148.25;4370665;32;33937;-84
2023/01/28 08:25:52;;;;;;;1.70;1.60;;;;;;;5.22;60.09;100152.47;4383423;32;33597;-81
2023/01/28 08:28:21;;;;;;;1.95;1.85;;;;;;;5.10;60.61;100150.91;4356245;32;33650;-82
2023/01/28 08:30:49;;;;;;;0.85;0.85;;;;;;;4.83;61.80;100160.91;4383733;32;34107;-81
2023/01/28 08:33:17;;;;;;;2.90;2.67;;;;;;;5.59;58.90;100144.84;4368992;32;34023;-82
2023/01/28 08:35:45;;;;;;;3.03;2.15;;;;;;;5.01;61.11;100156.28;4391844;32;33885;-82
2023/01/28 08:38:16;;;;;;;3.40;1.77;;;;;;;5.56;59.11;100155.41;4369049;32;33900;-81
2023/01/28 08:40:45;;;;;;;1.45;1.40;;;;;;;5.34;60.11;100166.22;4371035;32;34913;-82
2023/01/28 08:43:12;;;;;;;2.65;2.17;;;;;;;5.13;60.71;100166.59;4371086;32;32222;-82
2023/01/28 08:45:40;;;;;;;0.90;0.90;;;;;;;5.24;59.95;100175.13;4386866;32;33387;-82
2023/01/28 08:48:11;;;;;;;2.00;1.23;;;;;;;4.70;61.97;100177.69;4371427;32;33649;-82
2023/01/28 08:50:39;;;;;;;3.05;2.75;;;;;;;5.25;60.17;100181.22;4384082;32;34048;-83
2023/01/28 08:53:11;;;;;;;1.40;1.30;;;;;;;4.92;61.70;100186.06;4383916;32;33565;-82
2023/01/28 08:55:39;;;;;;;2.22;2.03;;;;;;;4.79;62.23;100192.34;4391084;32;33627;-82
2023/01/28 08:58:11;;;;;;;2.40;1.95;;;;;;;5.22;60.34;100182.16;4379479;32;33368;-82
2023/01/28 09:00:43;;;;;;;5.12;1.35;;;;;;;4.82;62.28;100189.72;4386955;32;33039;-82
2023/01/28 09:03:18;;;;;;;3.62;2.50;;;;;;;4.83;62.29;100189.69;4378610;32;34263;-82
2023/01/28 09:05:48;;;;;;;1.87;1.80;;;;;;;5.27;60.99;100190.78;4372744;32;34600;-82
2023/01/28 09:08:15;;;;;;;4.60;3.83;;;;;;;4.98;62.49;100191.22;4366829;32;32510;-82
2023/01/28 09:10:43;;;;;;;2.22;2.12;;;;;;;5.30;61.00;100192.47;4350580;32;33228;-82
2023/01/28 09:13:13;;;;;;;3.40;3.20;;;;;;;5.32;61.32;100188.97;4376229;32;33627;-83
2023/01/28 09:15:41;;;;;;;1.95;1.75;;;;;;;5.26;61.69;100198.66;4362786;32;33849;-82
2023/01/28 09:18:09;;;;;;;12.88;4.55;;;;;;;5.39;60.76;100190.56;4352244;32;34446;-82
2023/01/28 09:20:37;;;;;;;1.98;1.87;;;;;;;5.02;61.84;100195.50;4356986;32;32584;-82
2023/01/28 09:23:05;;;;;;;5.00;4.37;;;;;;;5.45;60.57;100193.97;4376562;32;33452;-82
2023/01/28 09:25:34;;;;;;;3.00;2.80;;;;;;;5.36;60.62;100206.34;4364268;32;33676;-82
2023/01/28 09:28:03;;;;;;;1.10;0.62;;;;;;;5.07;62.20;100204.16;4363918;32;33944;-82
2023/01/28 09:30:30;;;;;;;1.15;1.15;;;;;;;5.00;62.33;100204.28;4375332;32;33746;-83
2023/01/28 09:32:58;;;;;;;2.67;2.45;;;;;;;4.77;63.18;100209.84;4363953;32;33591;-85
2023/01/28 09:35:26;;;;;;;0.88;0.88;;;;;;;5.30;61.32;100206.44;4363339;32;32856;-83
2023/01/28 09:37:57;;;;;;;1.90;1.80;;;;;;;5.27;61.76;100205.59;4363534;32;33799;-83
2023/01/28 09:40:42;;;;;;;2.12;1.55;;;;;;;5.38;60.71;100215.03;4361601;32;31928;-83
2023/01/28 09:43:53;;;;;;;1.90;1.27;;;;;;;5.55;60.05;100203.41;4361841;32;34096;-83
2023/01/28 09:46:20;;;;;;;6.70;4.03;;;;;;;5.38;60.91;100203.72;4348684;32;33147;-83
2023/01/28 09:48:51;;;;;;;1.98;1.20;;;;;;;5.37;61.53;100209.84;4363188;32;34006;-83
2023/01/28 09:51:26;;;;;;;3.25;3.05;;;;;;;5.37;61.97;100201.97;4361810;32;33127;-83
2023/01/28 09:53:55;;;;;;;3.17;2.95;;;;;;;5.34;61.95;100208.12;4350814;32;32282;-83
2023/01/28 09:56:31;;;;;;;1.37;1.37;;;;;;;5.28;61.77;100197.75;4360987;32;33587;-83
2023/01/28 09:59:12;;;;;;;3.92;1.75;;;;;;;5.33;61.27;100206.41;4350512;32;32552;-83
2023/01/28 10:01:53;;;;;;;3.22;3.00;;;;;;;5.46;61.11;100200.94;4363820;32;33106;-83
2023/01/28 10:04:39;;;;;;;1.95;1.85;;;;;;;5.59;60.22;100202.47;4374290;32;33245;-83
2023/01/28 10:07:21;;;;;;;1.75;1.65;;;;;;;5.82;59.89;100187.22;4375342;32;34564;-83
2023/01/28 10:10:01;;;;;;;1.27;1.23;;;;;;;5.81;60.39;100189.87;4362784;32;33630;-83
2023/01/28 10:12:46;;;;;;;1.83;1.67;;;;;;;5.27;61.91;100196.03;4355217;32;32998;-83
2023/01/28 10:15:20;;;;;;;5.97;2.20;;;;;;;5.52;61.27;100200.88;4374270;32;34369;-83
2023/01/28 10:17:54;;;;;;;2.45;2.35;;;;;;;5.39;62.01;100190.56;4374481;32;33984;-83
2023/01/28 10:20:54;;;;;;;2.92;2.70;;;;;;;5.38;61.28;100194.09;4352045;32;32995;-82
2023/01/28 10:23:27;;;;;;;6.43;3.58;;;;;;;5.72;60.93;100192.66;4350004;32;34715;-83
2023/01/28 10:25:56;;;;;;;0.77;0.77;;;;;;;5.68;60.83;100186.59;4350711;32;32861;-83
2023/01/28 10:28:28;;;;;;;2.40;2.22;;;;;;;5.43;61.69;100198.38;4363696;32;33493;-84
2023/01/28 10:30:56;;;;;;;4.90;3.72;;;;;;;5.67;60.02;100203.22;4363441;32;32811;-83
2023/01/28 10:33:44;;;;;;;1.52;1.48;;;;;;;5.35;61.18;100193.28;4374937;32;34091;-83
2023/01/28 10:36:14;;;;;;;2.12;1.92;;;;;;;5.25;62.26;100203.03;4363585;32;33463;-83
2023/01/28 10:38:41;;;;;;;7.00;4.15;;;;;;;5.26;62.46;100196.87;4358525;32;33169;-83
2023/01/28 10:41:10;;;;;;;2.58;2.37;;;;;;;5.33;62.35;100195.06;4362920;32;32962;-83
2023/01/28 10:43:39;;;;;;;1.50;1.45;;;;;;;5.59;60.94;100198.09;4350451;32;34040;-83
2023/01/28 10:46:11;;;;;;;1.75;1.65;;;;;;;5.81;59.82;100195.97;4361506;32;33359;-83
2023/01/28 10:49:09;;;;;;;2.20;2.10;;;;;;;5.50;60.98;100207.88;4374910;32;33550;-83
2023/01/28 10:51:39;;;;;;;1.52;1.42;;;;;;;5.84;60.10;100193.31;4373408;32;34746;-83
2023/01/28 10:54:24;;;;;;;1.25;1.20;;;;;;;6.06;58.87;100185.94;4374734;32;34098;-83
2023/01/28 10:56:58;;;;;;;1.15;1.15;;;;;;;6.24;57.91;100187.34;4369174;32;33536;-83
2023/01/28 10:59:29;;;;;;;2.58;2.08;;;;;;;6.37;57.37;100183.56;4363770;32;33701;-83
2023/01/28 11:02:04;;;;;;;0.40;0.40;;;;;;;5.89;58.95;100186.22;4351127;32;34165;-83
2023/01/28 11:04:34;;;;;;;4.57;2.62;;;;;;;5.76;60.10;100189.94;4369481;32;34474;-83
2023/01/28 11:07:15;;;;;;;1.87;1.35;;;;;;;5.94;59.22;100194.03;4363333;32;33375;-83
2023/01/28 11:09:46;;;;;;;1.52;1.42;;;;;;;6.27;58.21;100191.66;4377196;32;33804;-83
2023/01/28 11:12:22;;;;;;;3.37;2.92;;;;;;;5.95;58.82;100190.53;4368875;32;33328;-83
2023/01/28 11:14:53;;;;;;;2.75;2.00;;;;;;;5.96;59.10;100192.25;4376077;32;34117;-83
2023/01/28 11:17:24;;;;;;;0.62;0.35;;;;;;;5.60;59.60;100198.97;4394158;32;33622;-83
2023/01/28 11:19:53;;;;;;;1.80;1.70;;;;;;;6.00;58.84;100182.56;4371003;32;32755;-82
2023/01/28 11:22:23;;;;;;;1.37;1.35;;;;;;;5.87;59.40;100185.38;4377754;32;32810;-83
2023/01/28 11:24:51;;;;;;;1.37;1.35;;;;;;;5.93;59.08;100181.81;4383034;32;34832;-83
2023/01/28 11:27:24;;;;;;;5.03;2.03;;;;;;;5.76;59.39;100186.47;4370076;32;32754;-83
2023/01/28 11:29:56;;;;;;;1.55;1.25;;;;;;;5.75;59.52;100180.38;4381978;32;33727;-83
2023/01/28 11:32:25;;;;;;;2.17;2.05;;;;;;;5.72;59.91;100177.78;4384105;32;34043;-83
2023/01/28 11:34:56;;;;;;;1.73;1.62;;;;;;;6.08;58.39;100180.69;4380941;32;34522;-83
2023/01/28 11:37:25;;;;;;;1.83;1.73;;;;;;;5.81;59.70;100177.62;4371960;32;32839;-83
2023/01/28 11:40:01;;;;;;;10.32;3.03;;;;;;;5.52;60.67;100183.37;4382573;32;33889;-83
2023/01/28 11:42:29;;;;;;;7.32;2.80;;;;;;;5.93;59.63;100176.56;4369681;32;32641;-83
2023/01/28 11:44:57;;;;;;;2.35;2.17;;;;;;;5.76;60.38;100174.22;4356897;32;33035;-83
2023/01/28 11:48:03;;;;;;;2.17;2.05;;;;;;;5.96;59.00;100178.28;4394002;32;33310;-83
2023/01/28 11:50:41;;;;;;;1.12;1.12;;;;;;;5.54;59.96;100178.12;4366760;32;33182;-83
2023/01/28 11:53:23;;;;;;;0.45;0.45;;;;;;;5.74;59.47;100177.75;4381553;32;34514;-83
2023/01/28 11:55:54;;;;;;;;;;;;;;;5.78;59.98;100172.44;4384068;32;33744;-83
2023/01/28 11:58:31;;;;;;;2.30;2.20;;;;;;;6.06;58.99;100170.19;4381850;32;32752;-83
2023/01/28 12:01:13;;;;;;;1.67;1.58;;;;;;;5.96;59.52;100165.16;4392762;32;34615;-83
2023/01/28 12:03:54;;;;;;;0.62;0.62;;;;;;;6.04;59.56;100163.28;4365679;32;32552;-83
2023/01/28 12:06:42;;;;;;;4.82;1.90;;;;;;;6.04;59.05;100168.50;4394199;32;34126;-83
2023/01/28 12:09:29;;;;;;;5.75;2.12;;;;;;;6.15;58.65;100166.53;4388721;32;32937;-83
2023/01/28 12:12:18;;;;;;;1.65;1.55;;;;;;;6.43;57.34;100160.75;4388255;32;33998;-83
2023/01/28 12:15:14;;;;;;;1.12;1.12;;;;;;;6.22;58.84;100168.16;4383171;32;33999;-84
2023/01/28 12:17:51;;;;;;;4.37;2.20;;;;;;;6.56;57.15;100157.81;4377667;32;32748;-84
2023/01/28 12:20:26;;;;;;;1.77;1.60;;;;;;;6.33;58.15;100155.69;4384824;32;32959;-83
2023/01/28 12:23:17;;;;;;;3.37;2.67;;;;;;;6.38;58.36;100161.69;4384130;32;33907;-84
2023/01/28 12:25:57;;;;;;;3.75;1.65;;;;;;;6.36;58.38;100155.63;4390270;32;34854;-84
2023/01/28 12:29:21;;;;;;;1.73;1.65;;;;;;;6.55;57.18;100155.22;4382615;32;32555;-84